Time;durP1;ratioP1;P1;durP2;ratioP2;P2;SDS_P1;SDS_P2;PMS_P1;PMS_P2;Temp;Humidity;BMP_temperature;BMP_pressure;BME280_temperature;BME280_humidity;BME280_pressure;Samples;Min_cycle;Max_cycle;Signal;HPM_P1;HPM_P2
2022/08/09 00:12:27;;;;;;;9.90;7.60;;;;;;;20.01;78.74;101436.86;655360;1277;139802;-80
2022/08/09 00:27:36;;;;;;;;;;;;;;;19.84;79.54;101434.58;655057;1277;138827;-80
2022/08/09 00:42:45;;;;;;;7.10;2.80;;;;;;;19.82;80.81;101429.89;665114;1277;126222;-80
2022/08/09 00:58:08;;;;;;;5.50;2.40;;;;;;;19.82;81.22;101434.65;655581;1277;139579;-80
2022/08/09 01:13:21;;;;;;;11.10;4.60;;;;;;;19.72;81.64;101441.71;655640;1277;139998;-81
2022/08/09 01:28:26;;;;;;;4.50;2.70;;;;;;;19.63;82.54;101442.89;656147;1277;139192;-81
2022/08/09 01:43:36;;;;;;;6.90;3.20;;;;;;;19.59;83.28;101437.27;655428;1277;139246;-80
2022/08/09 01:58:56;;;;;;;8.10;3.10;;;;;;;19.44;84.22;101441.92;655469;1278;139120;-81
2022/08/09 02:14:00;;;;;;;4.70;3.20;;;;;;;19.38;84.72;101438.27;656040;1279;22698;-78
2022/08/09 02:29:17;;;;;;;8.80;3.60;;;;;;;19.33;85.43;101442.98;655665;1277;24550;-81
2022/08/09 02:44:26;;;;;;;5.80;2.70;;;;;;;19.26;85.98;101437.26;656495;1277;24416;-80
2022/08/09 02:59:34;;;;;;;9.60;5.40;;;;;;;19.14;86.78;101440.33;656455;1277;25261;-79
2022/08/09 03:14:41;;;;;;;9.60;4.20;;;;;;;19.02;88.47;101452.90;656553;1275;23501;-80
2022/08/09 03:29:45;;;;;;;7.50;3.50;;;;;;;18.99;89.73;101460.30;656290;1277;25427;-80
2022/08/09 03:45:04;;;;;;;6.50;4.00;;;;;;;19.00;89.70;101458.42;655763;1277;25082;-81
2022/08/09 04:00:11;;;;;;;8.70;4.10;;;;;;;19.02;90.03;101461.80;657090;1277;25263;-80
2022/08/09 04:15:21;;;;;;;11.40;4.50;;;;;;;19.03;90.83;101467.13;657369;1277;24466;-80
2022/08/09 04:30:45;;;;;;;8.50;4.30;;;;;;;19.08;91.80;101467.73;656950;1277;25276;-80
2022/08/09 04:45:48;;;;;;;8.90;3.90;;;;;;;19.15;91.93;101482.77;657089;1277;22575;-80
2022/08/09 05:00:56;;;;;;;5.70;4.50;;;;;;;19.29;92.31;101491.25;656757;1277;22533;-80
2022/08/09 05:16:00;;;;;;;7.60;3.80;;;;;;;19.37;92.44;101499.55;655700;1279;25493;-80
2022/08/09 05:31:05;;;;;;;10.00;4.30;;;;;;;19.36;92.41;101506.11;656906;1277;25346;-79
2022/08/09 05:46:14;;;;;;;10.00;4.30;;;;;;;19.47;92.72;101513.06;656864;1277;23514;-76
2022/08/09 06:01:17;;;;;;;8.30;4.80;;;;;;;19.70;92.83;101517.55;658313;1277;25439;-74
2022/08/09 06:16:22;;;;;;;6.90;4.40;;;;;;;20.05;92.32;101523.48;657569;1277;25093;-77
2022/08/09 06:31:25;;;;;;;13.20;6.30;;;;;;;20.34;91.94;101535.55;658028;1277;22773;-80
2022/08/09 06:46:33;;;;;;;7.10;3.40;;;;;;;20.67;91.33;101546.07;659049;1277;22963;-81
2022/08/09 07:01:42;;;;;;;11.50;3.80;;;;;;;21.01;89.15;101552.30;659693;1277;22757;-80
2022/08/09 07:17:05;;;;;;;9.30;3.10;;;;;;;21.33;87.14;101568.45;660331;1279;26127;-83
2022/08/09 07:32:10;;;;;;;6.40;3.20;;;;;;;21.56;85.54;101571.67;660349;1277;25048;-81
2022/08/09 07:47:14;;;;;;;8.80;3.10;;;;;;;21.75;83.07;101590.31;660338;1277;22833;-80
2022/08/09 08:02:23;;;;;;;8.90;4.60;;;;;;;21.89;82.46;101607.39;662265;1278;23916;-81
2022/08/09 08:17:28;;;;;;;9.10;4.50;;;;;;;21.80;83.05;101613.11;659989;1277;22796;-80
2022/08/09 08:32:52;;;;;;;15.60;6.20;;;;;;;21.60;83.65;101620.02;657520;1277;31695;-82
2022/08/09 08:47:57;;;;;;;12.40;5.50;;;;;;;21.33;86.61;101630.73;663042;1277;22653;-83
2022/08/09 09:03:03;;;;;;;10.50;6.50;;;;;;;21.06;90.41;101626.53;659600;1277;22531;-84
2022/08/09 09:18:15;;;;;;;11.20;5.80;;;;;;;20.91;93.13;101633.75;657878;1277;23592;-83
2022/08/09 09:33:18;;;;;;;8.60;4.80;;;;;;;21.07;94.45;101624.53;656696;1277;22574;-83
2022/08/09 09:48:22;;;;;;;8.60;6.20;;;;;;;21.12;95.39;101625.79;655420;1278;1318447;-85
2022/08/09 10:03:37;;;;;;;11.80;5.70;;;;;;;21.52;96.53;101627.52;656941;1277;25480;-86
2022/08/09 10:18:53;;;;;;;9.30;5.80;;;;;;;21.98;96.62;101609.91;659362;1277;24364;-86
2022/08/09 10:33:57;;;;;;;8.90;5.40;;;;;;;22.38;95.45;101608.02;660803;1277;22638;-84
2022/08/09 10:49:47;;;;;;;13.00;8.00;;;;;;;23.02;91.09;101606.29;660240;1277;25519;-83
2022/08/09 11:05:13;;;;;;;8.20;4.80;;;;;;;23.92;87.05;101603.55;657428;1278;23724;-83
2022/08/09 11:20:43;;;;;;;6.70;3.00;;;;;;;25.04;81.89;101594.53;659569;1277;22545;-81
2022/08/09 11:35:55;;;;;;;5.70;2.10;;;;;;;26.97;74.31;101585.75;663461;1277;23049;-80
2022/08/09 11:51:03;;;;;;;5.50;2.50;;;;;;;26.73;65.20;101571.50;660034;1277;25261;-80
2022/08/09 12:06:29;;;;;;;5.60;2.60;;;;;;;27.61;64.66;101564.52;658858;1277;22707;-79
2022/08/09 12:21:39;;;;;;;3.80;2.20;;;;;;;28.62;61.18;101543.79;659623;1277;25538;-80
2022/08/09 12:36:55;;;;;;;3.40;2.10;;;;;;;30.04;59.54;101528.78;658887;1277;23512;-80
2022/08/09 12:52:18;;;;;;;2.30;2.10;;;;;;;30.51;55.62;101512.48;658032;1277;26601;-80
2022/08/09 13:08:09;;;;;;;3.00;1.90;;;;;;;31.31;52.73;101494.67;662399;1277;23173;-81
2022/08/09 13:23:14;;;;;;;1.70;1.50;;;;;;;31.43;48.49;101481.90;658821;1277;22875;-80
2022/08/09 13:38:37;;;;;;;4.60;2.20;;;;;;;31.28;48.49;101475.17;658829;1277;22545;-81
2022/08/09 13:53:59;;;;;;;3.50;2.30;;;;;;;30.11;49.76;101480.74;658610;1277;25332;-78
2022/08/09 14:09:04;;;;;;;2.90;2.00;;;;;;;28.42;51.94;101491.82;658671;1277;23458;-81
2022/08/09 14:24:13;;;;;;;3.40;2.00;;;;;;;27.14;54.14;101492.26;661365;1277;22553;-82
2022/08/09 14:39:24;;;;;;;7.50;2.50;;;;;;;26.45;56.57;101485.98;657443;1277;23669;-80
2022/08/09 14:54:48;;;;;;;3.40;2.20;;;;;;;26.25;58.38;101478.14;660717;1277;22677;-81
2022/08/09 15:09:52;;;;;;;5.70;2.70;;;;;;;26.24;58.84;101479.13;659186;1277;22659;-80
2022/08/09 15:25:13;;;;;;;2.40;2.10;;;;;;;26.55;58.87;101483.33;660608;1277;25293;-80
2022/08/09 15:40:23;;;;;;;3.40;2.10;;;;;;;26.64;58.12;101488.02;661508;1277;25345;-80
2022/08/09 15:55:35;;;;;;;2.90;2.00;;;;;;;26.84;57.39;101484.17;660291;1277;24417;-83
2022/08/09 16:11:01;;;;;;;4.10;2.30;;;;;;;27.36;56.89;101478.55;659371;1277;25670;-82
2022/08/09 16:26:05;;;;;;;3.90;3.50;;;;;;;27.60;56.31;101479.37;660029;1277;23668;-83
2022/08/09 16:41:22;;;;;;;7.60;3.00;;;;;;;27.93;56.05;101476.92;658644;1277;22765;-81
2022/08/09 16:56:46;;;;;;;6.50;3.60;;;;;;;27.50;56.66;101472.85;660190;1277;24383;-79
2022/08/09 17:11:52;;;;;;;5.70;3.80;;;;;;;27.36;57.24;101467.22;659454;1277;22593;-80
2022/08/09 17:26:55;;;;;;;4.30;2.40;;;;;;;26.92;58.09;101473.20;658637;1277;22720;-80
2022/08/09 17:42:00;;;;;;;7.00;3.70;;;;;;;26.04;58.87;101478.98;658679;1278;22560;-81
2022/08/09 17:57:04;;;;;;;6.60;4.70;;;;;;;25.14;60.40;101491.73;657708;1275;23567;-81
2022/08/09 18:12:13;;;;;;;9.40;4.70;;;;;;;24.58;61.54;101495.88;658303;1277;22628;-80
2022/08/09 18:27:23;;;;;;;144.40;60.80;;;;;;;24.00;63.16;101495.62;661418;1277;22720;-81
2022/08/09 18:42:50;;;;;;;95.10;34.70;;;;;;;23.18;64.47;101508.83;661114;1277;22716;-81
2022/08/09 18:57:56;;;;;;;19.40;10.00;;;;;;;22.59;66.30;101522.30;664088;1277;22651;-81
2022/08/09 19:13:06;;;;;;;15.20;7.10;;;;;;;22.14;68.20;101533.42;658926;1277;22556;-84
2022/08/09 19:28:26;;;;;;;15.80;7.50;;;;;;;21.72;69.85;101546.41;660832;1277;24301;-82
2022/08/09 19:43:33;;;;;;;10.30;6.10;;;;;;;21.39;71.50;101554.95;661753;1277;24362;-82
2022/08/09 19:59:02;;;;;;;10.30;5.40;;;;;;;21.10;73.00;101557.66;659381;1277;23605;-82
2022/08/09 20:14:26;;;;;;;13.80;6.70;;;;;;;20.65;73.64;101556.77;659652;1277;22600;-82
2022/08/09 20:29:30;;;;;;;6.50;3.90;;;;;;;20.00;74.65;101554.28;660188;1277;22615;-82
2022/08/09 20:44:40;;;;;;;6.30;3.80;;;;;;;19.62;78.35;101556.34;659872;1277;22672;-82
2022/08/09 20:59:53;;;;;;;9.80;3.70;;;;;;;19.44;80.19;101554.77;659088;1277;22608;-83
2022/08/09 21:15:16;;;;;;;7.10;4.60;;;;;;;19.18;81.41;101556.09;657856;1277;23016;-81
2022/08/09 21:30:37;;;;;;;8.60;4.20;;;;;;;18.94;82.14;101559.24;657869;1277;23233;-81
2022/08/09 21:45:42;;;;;;;7.30;3.40;;;;;;;18.72;83.24;101563.80;656523;1277;1602681;-82
2022/08/09 22:00:46;;;;;;;9.20;3.50;;;;;;;18.43;84.52;101564.53;658669;1277;22547;-81
2022/08/09 22:15:54;;;;;;;5.10;3.30;;;;;;;18.14;85.19;101563.55;658720;1277;23481;-81
2022/08/09 22:30:57;;;;;;;5.50;3.70;;;;;;;17.67;84.99;101563.73;663347;1277;25263;-81
2022/08/09 22:46:01;;;;;;;7.80;4.70;;;;;;;17.27;86.55;101571.52;659369;1277;24396;-82
2022/08/09 23:01:25;;;;;;;6.50;4.20;;;;;;;16.96;88.55;101572.13;660848;1277;22615;-82
2022/08/09 23:16:30;;;;;;;15.80;7.00;;;;;;;16.86;91.70;101575.05;657791;1279;25542;-81
2022/08/09 23:31:33;;;;;;;10.40;5.70;;;;;;;16.50;91.24;101578.20;658239;1277;23934;-81
2022/08/09 23:46:36;;;;;;;10.00;5.80;;;;;;;16.30;91.37;101577.06;657005;1277;22543;-80
